createdAt,value
2023-03-05T00:01:29.057Z,100275.03
2023-03-05T00:03:57.335Z,100307.38
2023-03-05T00:06:26.664Z,100301.25
2023-03-05T00:08:56.741Z,100299.50
2023-03-05T00:11:25.577Z,100298.66
2023-03-05T00:13:53.314Z,100294.31
2023-03-05T00:16:21.154Z,100293.41
2023-03-05T00:18:49.133Z,100293.41
2023-03-05T00:21:19.654Z,100289.06
2023-03-05T00:23:47.398Z,100286.44
2023-03-05T00:26:16.423Z,100280.38
2023-03-05T00:28:44.140Z,100291.69
2023-03-05T00:31:12.052Z,100290.78
2023-03-05T00:33:39.796Z,100288.16
2023-03-05T00:36:08.144Z,100296.03
2023-03-05T00:38:35.926Z,100279.47
2023-03-05T00:41:03.655Z,100205.09
2023-03-05T00:43:32.827Z,100283.78
2023-03-05T00:46:00.476Z,100283.78
2023-03-05T00:48:28.235Z,100280.31
2023-03-05T00:50:55.901Z,100275.91
2023-03-05T00:53:23.776Z,100280.28
2023-03-05T00:55:51.417Z,100275.91
2023-03-05T00:58:19.213Z,100266.28
2023-03-05T01:00:50.467Z,100269.78
2023-03-05T01:03:18.304Z,100264.53
2023-03-05T01:05:45.962Z,100276.69
2023-03-05T01:08:13.708Z,100266.22
2023-03-05T01:10:41.443Z,100263.63
2023-03-05T01:13:09.346Z,100267.94
2023-03-05T01:15:37.010Z,100258.34
2023-03-05T01:20:40.757Z,100232.03
2023-03-05T01:23:08.806Z,100248.69
2023-03-05T01:25:37.596Z,100171.66
2023-03-05T01:28:06.032Z,100253.00
2023-03-05T01:30:34.018Z,100210.13
2023-03-05T01:33:02.035Z,100223.38
2023-03-05T01:35:29.811Z,100197.00
2023-03-05T01:37:59.058Z,100209.28
2023-03-05T01:40:30.070Z,100136.84
2023-03-05T01:43:01.680Z,100151.66
2023-03-05T01:45:31.755Z,100231.28
2023-03-05T01:47:59.545Z,100196.19
2023-03-05T01:50:28.845Z,100214.75
2023-03-05T01:52:59.608Z,100201.56
2023-03-05T01:55:28.901Z,100196.25
2023-03-05T01:57:57.951Z,100153.50
2023-03-05T02:00:28.046Z,100196.28
2023-03-05T02:02:55.779Z,100178.94
2023-03-05T02:05:27.129Z,100156.19
2023-03-05T02:07:56.110Z,100174.50
2023-03-05T02:10:27.403Z,100197.31
2023-03-05T02:12:57.139Z,100199.88
2023-03-05T02:15:28.171Z,100184.06
2023-03-05T02:17:55.885Z,100155.19
2023-03-05T02:20:25.299Z,100198.06
2023-03-05T02:22:54.718Z,100159.56
2023-03-05T02:25:26.556Z,100219.69
2023-03-05T02:27:57.714Z,100192.81
2023-03-05T02:30:25.630Z,100183.16
2023-03-05T02:32:53.808Z,100170.00
2023-03-05T02:35:21.866Z,100188.50
2023-03-05T02:37:51.338Z,100156.97
2023-03-05T02:40:20.462Z,100181.50
2023-03-05T02:42:49.029Z,100182.34
2023-03-05T02:45:16.951Z,100157.06
2023-03-05T02:47:44.809Z,100142.25
2023-03-05T02:50:13.044Z,100127.41
2023-03-05T02:52:41.264Z,100165.00
2023-03-05T02:55:09.873Z,100158.66
2023-03-05T02:57:39.375Z,100141.41
2023-03-05T03:00:08.190Z,100143.19
2023-03-05T03:02:36.025Z,100157.16
2023-03-05T03:05:03.796Z,100093.41
2023-03-05T03:07:31.611Z,100142.38
2023-03-05T03:09:59.361Z,100110.09
2023-03-05T03:12:27.128Z,100041.06
2023-03-05T03:14:56.175Z,100101.31
2023-03-05T03:17:27.083Z,100138.06
2023-03-05T03:19:54.840Z,100136.34
2023-03-05T03:22:22.831Z,100123.34
2023-03-05T03:24:50.679Z,100130.28
2023-03-05T03:27:18.433Z,100101.47
2023-03-05T03:29:47.087Z,100129.44
2023-03-05T03:32:16.351Z,100136.41
2023-03-05T03:34:44.612Z,100048.88
2023-03-05T03:37:12.698Z,100124.25
2023-03-05T03:39:40.448Z,100056.09
2023-03-05T03:42:08.591Z,100150.28
2023-03-05T03:44:36.521Z,100106.84
2023-03-05T03:47:04.318Z,100090.22
2023-03-05T03:49:33.527Z,100083.31
2023-03-05T03:52:01.230Z,100089.47
2023-03-05T03:54:28.941Z,100101.59
2023-03-05T03:56:56.764Z,100112.88
2023-03-05T03:59:24.801Z,100085.13
2023-03-05T04:01:52.628Z,100100.75
2023-03-05T04:04:20.334Z,100059.78
2023-03-05T04:06:58.212Z,100085.13
2023-03-05T04:09:25.972Z,100085.13
2023-03-05T04:11:55.241Z,100080.75
2023-03-05T04:14:23.254Z,99995.03
2023-03-05T04:16:51.119Z,100078.13
2023-03-05T04:19:20.850Z,100027.44
2023-03-05T04:21:48.536Z,100073.81
2023-03-05T04:24:21.868Z,100068.31
2023-03-05T04:26:49.602Z,100072.91
2023-03-05T04:29:17.348Z,100072.06
2023-03-05T04:31:45.062Z,99953.41
2023-03-05T04:34:12.827Z,100066.88
2023-03-05T04:36:40.497Z,100062.53
2023-03-05T04:39:09.389Z,100045.97
2023-03-05T04:41:38.451Z,100052.91
2023-03-05T04:44:06.518Z,100052.88
2023-03-05T04:46:34.279Z,100047.63
2023-03-05T04:49:02.230Z,100051.06
2023-03-05T04:51:29.907Z,100049.41
2023-03-05T04:53:57.580Z,100049.38
2023-03-05T04:56:25.252Z,100035.41
2023-03-05T04:58:55.190Z,100048.50
2023-03-05T05:01:23.376Z,100031.94
2023-03-05T05:03:51.099Z,100039.84
2023-03-05T05:06:18.802Z,100038.97
2023-03-05T05:08:46.501Z,100033.75
2023-03-05T05:11:15.130Z,100000.56
2023-03-05T05:13:42.892Z,100035.50
2023-03-05T05:16:12.364Z,100003.22
2023-03-05T05:18:40.078Z,100028.56
2023-03-05T05:21:10.722Z,100025.03
2023-03-05T05:23:38.403Z,100024.19
2023-03-05T05:26:07.269Z,100025.91
2023-03-05T05:28:35.133Z,100031.06
2023-03-05T05:31:08.115Z,100027.56
2023-03-05T05:33:37.193Z,100019.66
2023-03-05T05:36:05.568Z,100025.81
2023-03-05T05:38:33.437Z,100024.03
2023-03-05T05:41:05.550Z,100021.44
2023-03-05T05:43:33.255Z,99997.00
2023-03-05T05:46:01.866Z,99969.03
2023-03-05T05:48:30.025Z,100011.88
2023-03-05T05:50:59.400Z,100019.66
2023-03-05T05:53:27.429Z,100022.28
2023-03-05T05:55:55.327Z,100011.88
2023-03-05T05:58:23.062Z,100004.03
2023-03-05T06:00:50.806Z,100010.16
2023-03-05T06:03:18.512Z,100010.13
2023-03-05T06:05:47.588Z,100002.31
2023-03-05T06:08:17.469Z,100003.16
2023-03-05T06:10:45.329Z,99977.78
2023-03-05T06:13:13.089Z,100010.09
2023-03-05T06:15:40.965Z,100001.38
2023-03-05T06:18:08.671Z,100010.97
2023-03-05T06:20:36.463Z,100007.47
2023-03-05T06:23:04.155Z,100011.81
2023-03-05T06:25:33.410Z,100009.19
2023-03-05T06:28:01.128Z,100005.72
2023-03-05T06:30:28.976Z,100012.69
2023-03-05T06:32:56.760Z,100010.97
2023-03-05T06:35:24.576Z,100008.34
2023-03-05T06:37:52.268Z,99994.38
2023-03-05T06:40:20.260Z,100005.72
2023-03-05T06:42:49.338Z,100007.47
2023-03-05T06:45:17.131Z,100004.91
2023-03-05T06:47:44.779Z,99968.25
2023-03-05T06:50:13.441Z,99999.72
2023-03-05T06:52:41.307Z,99991.06
2023-03-05T06:55:10.134Z,99972.69
2023-03-05T06:57:37.903Z,99991.94
2023-03-05T07:00:10.190Z,99997.16
2023-03-05T07:02:38.262Z,99993.72
2023-03-05T07:05:06.763Z,99959.66
2023-03-05T07:07:34.730Z,99993.81
2023-03-05T07:10:03.279Z,99997.31
2023-03-05T07:12:30.970Z,99974.63
2023-03-05T07:14:58.806Z,99994.75
2023-03-05T07:20:02.141Z,99996.53
2023-03-05T07:22:30.145Z,99992.25
2023-03-05T07:24:58.017Z,99978.31
2023-03-05T07:27:26.509Z,99967.06
2023-03-05T07:29:54.296Z,99974.03
2023-03-05T07:32:22.029Z,99967.97
2023-03-05T07:34:49.850Z,99982.88
2023-03-05T07:37:19.005Z,99985.47
2023-03-05T07:39:48.536Z,99977.69
2023-03-05T07:42:16.310Z,99975.13
2023-03-05T07:44:46.262Z,99970.78
2023-03-05T07:47:13.958Z,99974.34
2023-03-05T07:49:42.542Z,99977.88
2023-03-05T07:52:10.339Z,99976.19
2023-03-05T07:54:40.731Z,99969.28
2023-03-05T07:57:08.638Z,99968.41
2023-03-05T07:59:37.100Z,99967.56
2023-03-05T08:02:04.878Z,99965.84
2023-03-05T08:04:32.908Z,99944.06
2023-03-05T08:07:00.888Z,99973.69
2023-03-05T08:09:29.078Z,99964.13
2023-03-05T08:11:58.245Z,99906.63
2023-03-05T08:14:26.450Z,99957.19
2023-03-05T08:16:54.444Z,99904.91
2023-03-05T08:19:22.327Z,99955.53
2023-03-05T08:21:50.188Z,99952.03
2023-03-05T08:24:17.856Z,99949.44
2023-03-05T08:26:45.718Z,99955.53
2023-03-05T08:29:14.756Z,99945.06
2023-03-05T08:31:42.567Z,99947.63
2023-03-05T08:34:10.350Z,99945.84
2023-03-05T08:36:38.171Z,99913.63
2023-03-05T08:39:06.756Z,99922.34
2023-03-05T08:41:34.705Z,99936.31
2023-03-05T08:44:02.392Z,99930.22
2023-03-05T08:46:31.724Z,99901.47
2023-03-05T08:48:59.682Z,99927.66
2023-03-05T08:51:27.730Z,99927.63
2023-03-05T08:53:55.997Z,99918.03
2023-03-05T08:56:23.724Z,99924.19
2023-03-05T08:58:52.427Z,99928.47
2023-03-05T09:01:20.285Z,99886.66
2023-03-05T09:03:49.364Z,99904.06
2023-03-05T09:06:17.253Z,99916.19
2023-03-05T09:08:45.269Z,99924.91
2023-03-05T09:11:13.649Z,99937.06
2023-03-05T09:13:41.424Z,99924.88
2023-03-05T09:16:10.690Z,99917.91
2023-03-05T09:18:40.158Z,99916.16
2023-03-05T09:21:10.026Z,99914.38
2023-03-05T09:23:38.580Z,99920.47
2023-03-05T09:26:06.651Z,99882.94
2023-03-05T09:28:35.562Z,99901.31
2023-03-05T09:31:04.711Z,99909.16
2023-03-05T09:33:32.646Z,99906.63
2023-03-05T09:36:00.646Z,99902.28
2023-03-05T09:38:30.036Z,99905.78
2023-03-05T09:41:11.922Z,99875.31
2023-03-05T09:43:45.427Z,99897.09
2023-03-05T09:46:21.865Z,99905.84
2023-03-05T09:48:53.208Z,99888.50
2023-03-05T09:51:25.248Z,99892.84
2023-03-05T09:54:02.627Z,99837.13
2023-03-05T09:56:31.945Z,99808.38
2023-03-05T09:59:01.940Z,99891.13
2023-03-05T10:01:32.295Z,99851.91
2023-03-05T10:04:01.878Z,99891.06
2023-03-05T10:06:31.035Z,99856.22
2023-03-05T10:56:03.970Z,99779.84
2023-03-05T10:58:33.042Z,99828.56
2023-03-05T11:01:09.543Z,99799.81
2023-03-05T11:03:52.257Z,99791.06
2023-03-05T11:06:28.728Z,99824.00
2023-03-05T11:08:57.260Z,99778.72
2023-03-05T11:11:26.497Z,99782.94
2023-03-05T11:14:00.374Z,99858.31
2023-03-05T11:16:29.022Z,99764.31
2023-03-05T11:19:19.389Z,99803.78
2023-03-05T11:21:47.708Z,99773.41
2023-03-05T11:24:18.218Z,99784.63
2023-03-05T11:26:51.441Z,99788.25
2023-03-05T11:29:22.729Z,99773.06
2023-03-05T11:31:50.622Z,99790.59
2023-03-05T11:34:29.060Z,99789.94
2023-03-05T11:37:06.474Z,99752.97
2023-03-05T11:39:38.295Z,99786.72
2023-03-05T11:42:09.921Z,99788.63
2023-03-05T11:44:42.577Z,99780.03
2023-03-05T11:47:18.189Z,99767.19
2023-03-05T11:49:46.958Z,99778.47
2023-03-05T11:52:16.482Z,99775.09
2023-03-05T11:54:49.186Z,99768.25
2023-03-05T11:57:19.368Z,99765.81
2023-03-05T11:59:47.110Z,99783.44
2023-03-05T12:02:20.741Z,99749.69
2023-03-05T12:04:48.569Z,99761.91
2023-03-05T12:07:18.505Z,99757.66
2023-03-05T12:09:47.603Z,99706.41
2023-03-05T12:12:24.922Z,99735.94
2023-03-05T12:15:06.824Z,99746.22
2023-03-05T12:17:42.230Z,99744.34
2023-03-05T12:20:13.823Z,99742.53
2023-03-05T12:22:43.309Z,99744.97
2023-03-05T12:25:28.487Z,99730.88
2023-03-05T12:27:58.174Z,99718.69
2023-03-05T12:30:56.777Z,99713.53
2023-03-05T12:33:39.987Z,99696.47
2023-03-05T12:36:39.657Z,99705.16
2023-03-05T12:39:52.750Z,99700.00
2023-03-05T12:42:46.350Z,99697.41
2023-03-05T12:45:45.895Z,99697.47
2023-03-05T12:48:50.335Z,99689.59
2023-03-05T12:51:32.293Z,99684.41
2023-03-05T12:54:23.118Z,99646.25
2023-03-05T12:56:51.034Z,99677.47
2023-03-05T12:59:19.967Z,99647.22
2023-03-05T13:01:51.655Z,99667.13
2023-03-05T13:04:21.568Z,99661.06
2023-03-05T13:06:50.458Z,99661.09
2023-03-05T13:09:19.084Z,99662.84
2023-03-05T13:11:47.784Z,99594.31
2023-03-05T13:14:28.806Z,99639.41
2023-03-05T13:16:57.980Z,99640.22
2023-03-05T13:19:25.833Z,99653.31
2023-03-05T13:22:00.483Z,99644.63
2023-03-05T13:24:29.156Z,99635.06
2023-03-05T13:26:57.004Z,99633.38
2023-03-05T13:29:26.261Z,99611.66
2023-03-05T13:31:57.056Z,99636.91
2023-03-05T13:34:32.040Z,99630.81
2023-03-05T13:37:03.399Z,99629.94
2023-03-05T13:39:32.045Z,99627.28
2023-03-05T13:42:02.010Z,99615.13
2023-03-05T13:44:30.114Z,99595.09
2023-03-05T13:47:09.878Z,99619.34
2023-03-05T13:49:37.537Z,99614.97
2023-03-05T13:52:06.040Z,99616.66
2023-03-05T13:54:33.734Z,99646.28
2023-03-05T13:57:02.573Z,99604.38
2023-03-05T13:59:31.093Z,99595.66
2023-03-05T14:01:59.249Z,99597.31
2023-03-05T14:04:28.980Z,99570.31
2023-03-05T14:06:59.253Z,99591.13
2023-03-05T14:09:28.163Z,99587.63
2023-03-05T14:11:57.316Z,99559.00
2023-03-05T14:14:25.155Z,99579.72
2023-03-05T14:16:52.956Z,99578.81
2023-03-05T14:19:35.491Z,99582.34
2023-03-05T14:22:03.353Z,99574.53
2023-03-05T14:24:34.469Z,99571.09
2023-03-05T14:27:05.584Z,99570.19
2023-03-05T14:29:33.334Z,99532.00
2023-03-05T14:32:01.902Z,99559.75
2023-03-05T14:34:30.944Z,99556.25
2023-03-05T14:37:02.960Z,99558.03
2023-03-05T14:39:32.563Z,99548.50
2023-03-05T14:42:31.245Z,99550.19
2023-03-05T14:44:59.851Z,99542.38
2023-03-05T14:47:28.279Z,99543.28
2023-03-05T14:49:55.977Z,99534.63
2023-03-05T14:52:25.353Z,99473.09
2023-03-05T14:54:53.091Z,99532.09
2023-03-05T14:57:22.431Z,99493.03
2023-03-05T14:59:50.209Z,99526.88
2023-03-05T15:07:37.546Z,99502.56
2023-03-05T15:10:06.218Z,99505.19
2023-03-05T15:12:33.970Z,99490.47
2023-03-05T15:15:01.738Z,99498.22
2023-03-05T15:17:33.570Z,99488.66
2023-03-05T15:20:01.757Z,99492.97
2023-03-05T15:22:29.413Z,99493.84
2023-03-05T15:24:58.560Z,99482.56
2023-03-05T15:27:26.244Z,99472.97
2023-03-05T15:29:53.951Z,99484.25
2023-03-05T15:32:21.790Z,99453.03
2023-03-05T15:34:49.714Z,99479.84
2023-03-05T15:37:17.377Z,99476.38
2023-03-05T15:39:45.111Z,99470.28
2023-03-05T15:42:14.147Z,99465.09
2023-03-05T15:44:42.423Z,99468.59
2023-03-05T15:47:10.203Z,99407.88
2023-03-05T15:49:37.935Z,99459.88
2023-03-05T15:52:05.645Z,99458.13
2023-03-05T15:54:33.330Z,99452.91
2023-03-05T15:57:00.977Z,99454.66
2023-03-05T15:59:30.031Z,99450.31
2023-03-05T16:01:57.739Z,99441.63
2023-03-05T16:04:25.686Z,99404.38
2023-03-05T16:06:53.352Z,99439.84
2023-03-05T16:09:21.700Z,99439.00
2023-03-05T16:11:51.287Z,99432.94
2023-03-05T16:14:20.776Z,99412.13
2023-03-05T16:16:49.780Z,99426.03
2023-03-05T16:19:17.891Z,99419.91
2023-03-05T16:21:45.587Z,99411.28
2023-03-05T16:24:16.402Z,99420.84
2023-03-05T16:26:44.219Z,99413.03
2023-03-05T16:29:13.066Z,99417.47
2023-03-05T16:31:42.935Z,99390.63
2023-03-05T16:34:14.065Z,99409.72
2023-03-05T16:36:41.844Z,99369.94
2023-03-05T16:39:09.519Z,99413.28
2023-03-05T16:41:37.211Z,99412.44
2023-03-05T16:44:05.492Z,99400.28
2023-03-05T16:46:35.070Z,99398.56
2023-03-05T16:49:03.127Z,99381.31
2023-03-05T16:51:32.264Z,99392.56
2023-03-05T16:53:59.978Z,99390.94
2023-03-05T16:56:27.682Z,99401.38
2023-03-05T16:58:55.676Z,99374.56
2023-03-05T17:01:23.676Z,99353.78
2023-03-05T17:03:52.480Z,99396.22
2023-03-05T17:06:21.394Z,99388.47
2023-03-05T17:08:51.593Z,99385.00
2023-03-05T17:11:19.657Z,99395.44
2023-03-05T17:13:49.000Z,99354.75
2023-03-05T17:16:17.842Z,99380.75
2023-03-05T17:18:45.637Z,99387.69
2023-03-05T17:21:13.416Z,99374.66
2023-03-05T17:23:41.427Z,99362.50
2023-03-05T17:26:11.444Z,99305.38
2023-03-05T17:28:39.297Z,99387.72
2023-03-05T17:31:06.941Z,99264.72
2023-03-05T17:33:34.835Z,99367.81
2023-03-05T17:36:03.109Z,99381.59
2023-03-05T17:38:31.046Z,99383.34
2023-03-05T17:40:58.746Z,99377.28
2023-03-05T17:43:28.835Z,99379.00
2023-03-05T17:45:59.491Z,99372.97
2023-03-05T17:48:27.312Z,99382.50
2023-03-05T17:50:55.041Z,99372.13
2023-03-05T17:53:22.870Z,99372.13
2023-03-05T17:55:50.942Z,99375.59
2023-03-05T17:58:18.816Z,99378.22
2023-03-05T18:00:47.971Z,99373.03
2023-03-05T18:03:15.944Z,99370.41
2023-03-05T18:05:43.761Z,99368.72
2023-03-05T18:08:11.422Z,99374.81
2023-03-05T18:10:39.067Z,99370.47
2023-03-05T18:13:06.964Z,99304.59
2023-03-05T18:15:34.831Z,99367.00
2023-03-05T18:18:04.026Z,99364.41
2023-03-05T18:20:33.059Z,99360.06
2023-03-05T18:23:02.284Z,99356.59
2023-03-05T18:25:31.724Z,99361.81
2023-03-05T18:28:00.168Z,99360.06
2023-03-05T18:30:28.018Z,99353.09
2023-03-05T18:32:56.386Z,99358.31
2023-03-05T18:35:25.659Z,99353.13
2023-03-05T18:37:53.413Z,99350.50
2023-03-05T18:40:22.496Z,99353.97
2023-03-05T18:42:50.241Z,99350.50
2023-03-05T18:45:19.251Z,99344.41
2023-03-05T18:47:49.007Z,99340.94
2023-03-05T18:50:18.469Z,99329.66
2023-03-05T18:52:48.390Z,99313.19
2023-03-05T18:55:16.285Z,99341.75
2023-03-05T18:57:43.978Z,99330.47
2023-03-05T19:00:13.580Z,99346.16
2023-03-05T19:02:41.382Z,99333.91
2023-03-05T19:05:09.610Z,99330.47
2023-03-05T19:07:38.053Z,99328.69
2023-03-05T19:10:09.899Z,99320.91
2023-03-05T19:12:45.452Z,99325.25
2023-03-05T19:15:13.979Z,99323.50
2023-03-05T19:17:41.660Z,99319.22
2023-03-05T19:20:12.760Z,99290.63
2023-03-05T19:22:40.738Z,99331.34
2023-03-05T19:25:11.010Z,99321.81
2023-03-05T19:27:39.226Z,99311.38
2023-03-05T19:30:08.256Z,99316.59
2023-03-05T19:32:36.258Z,99288.03
2023-03-05T19:35:04.126Z,99308.81
2023-03-05T19:37:32.160Z,99307.91
2023-03-05T19:39:59.987Z,99299.25
2023-03-05T19:42:29.253Z,99290.59
2023-03-05T19:44:59.630Z,99296.69
2023-03-05T19:47:27.816Z,99296.63
2023-03-05T19:49:55.840Z,99262.00
2023-03-05T19:52:23.593Z,99276.72
2023-03-05T19:54:51.444Z,99291.44
2023-03-05T19:57:19.483Z,99250.78
2023-03-05T19:59:50.716Z,99311.44
2023-03-05T20:02:21.725Z,99275.78
2023-03-05T20:04:49.812Z,99245.53
2023-03-05T20:07:17.794Z,99276.69
2023-03-05T20:09:46.870Z,99205.69
2023-03-05T20:12:14.746Z,99218.69
2023-03-05T20:14:42.820Z,99253.34
2023-03-05T20:17:12.031Z,99266.31
2023-03-05T20:19:39.929Z,99272.34
2023-03-05T20:22:08.790Z,99261.09
2023-03-05T20:24:37.364Z,99265.41
2023-03-05T20:27:05.328Z,99257.63
2023-03-05T20:29:33.205Z,99266.31
2023-03-05T20:32:01.222Z,99268.06
2023-03-05T20:34:31.222Z,99251.66
2023-03-05T20:36:59.502Z,99262.88
2023-03-05T20:39:27.408Z,99258.53
2023-03-05T20:41:55.272Z,99253.38
2023-03-05T20:44:23.250Z,99223.09
2023-03-05T20:46:59.603Z,99261.16
2023-03-05T20:49:27.552Z,99245.56
2023-03-05T20:51:56.984Z,99203.09
2023-03-05T20:54:27.212Z,99242.09
2023-03-05T20:56:55.096Z,99243.78
2023-03-05T20:59:23.379Z,99249.91
2023-03-05T21:01:51.333Z,99238.59
2023-03-05T21:04:19.329Z,99235.16
2023-03-05T21:06:47.223Z,99236.88
2023-03-05T21:09:16.636Z,99236.88
2023-03-05T21:11:44.582Z,99214.31
2023-03-05T21:14:12.322Z,99224.69
2023-03-05T21:16:40.461Z,99197.88
2023-03-05T21:19:08.437Z,99204.75
2023-03-05T21:21:36.248Z,99207.31
2023-03-05T21:24:04.176Z,99215.94
2023-03-05T21:26:34.320Z,99200.38
2023-03-05T21:29:03.770Z,99196.00
2023-03-05T21:31:32.456Z,99204.69
2023-03-05T21:34:00.625Z,99201.22
2023-03-05T21:36:28.367Z,99199.50
2023-03-05T21:39:25.041Z,99200.34
2023-03-05T21:41:54.416Z,99195.19
2023-03-05T21:44:22.867Z,99156.22
2023-03-05T21:46:56.919Z,99127.66
2023-03-05T21:49:24.888Z,99183.91
2023-03-05T21:52:03.478Z,99186.53
2023-03-05T21:54:54.909Z,99173.56
2023-03-05T21:57:24.488Z,99168.31
2023-03-05T21:59:52.285Z,99170.91
2023-03-05T22:02:24.848Z,99162.25
2023-03-05T22:04:53.749Z,99154.47
2023-03-05T22:07:21.776Z,99157.94
2023-03-05T22:09:54.730Z,99129.44
2023-03-05T22:12:39.277Z,99157.97
2023-03-05T22:15:08.413Z,99155.38
2023-03-05T22:17:36.363Z,99139.78
2023-03-05T22:20:04.990Z,99144.06
2023-03-05T22:22:32.896Z,99105.16
2023-03-05T22:25:00.793Z,99138.94
2023-03-05T22:27:30.117Z,99129.38
2023-03-05T22:29:58.249Z,99131.13
2023-03-05T22:32:25.965Z,99114.69
2023-03-05T22:34:56.189Z,99126.81
2023-03-05T22:37:23.883Z,99118.13
2023-03-05T22:39:57.713Z,99122.50
2023-03-05T22:42:28.690Z,99122.50
2023-03-05T22:44:58.657Z,99110.34
2023-03-05T22:47:27.693Z,99113.84
2023-03-05T22:49:55.700Z,99107.78
2023-03-05T22:52:23.352Z,99106.91
2023-03-05T22:54:51.201Z,99103.41
2023-03-05T22:57:18.833Z,99104.28
2023-03-05T22:59:49.608Z,99093.06
2023-03-05T23:02:18.921Z,99103.41
2023-03-05T23:04:49.484Z,99055.00
2023-03-05T23:07:17.899Z,99056.72
2023-03-05T23:09:45.780Z,99093.00
2023-03-05T23:12:13.870Z,99090.41
2023-03-05T23:14:41.712Z,99087.81
2023-03-05T23:17:09.367Z,99085.22
2023-03-05T23:19:39.912Z,99089.53
2023-03-05T23:22:08.404Z,99080.00
2023-03-05T23:24:36.085Z,99078.25
2023-03-05T23:27:05.364Z,99077.41
2023-03-05T23:29:37.296Z,99081.72
2023-03-05T23:32:05.741Z,99057.53
2023-03-05T23:34:33.782Z,99069.56
2023-03-05T23:37:02.824Z,99073.06
2023-03-05T23:39:30.687Z,99069.59
2023-03-05T23:41:58.320Z,99069.59
2023-03-05T23:44:26.204Z,99064.38
2023-03-05T23:46:53.881Z,99056.56
2023-03-05T23:49:21.735Z,99057.41
2023-03-05T23:51:49.447Z,99057.41
2023-03-05T23:54:18.806Z,99058.28
2023-03-05T23:56:46.516Z,99045.28
2023-03-05T23:59:14.418Z,99047.00
